createdAt,value
2022-12-03T00:01:01.785Z,49.70
2022-12-03T00:03:29.535Z,49.60
2022-12-03T00:05:56.655Z,49.60
2022-12-03T00:08:23.541Z,49.80
2022-12-03T00:10:51.392Z,50.00
2022-12-03T00:13:18.371Z,49.50
2022-12-03T00:15:45.254Z,48.80
2022-12-03T00:18:12.296Z,49.60
2022-12-03T00:20:39.216Z,50.40
2022-12-03T00:23:06.132Z,49.90
2022-12-03T00:25:33.109Z,50.10
2022-12-03T00:27:59.974Z,50.50
2022-12-03T00:30:26.890Z,50.60
2022-12-03T00:32:53.860Z,50.30
2022-12-03T00:35:20.741Z,50.00
2022-12-03T00:37:47.730Z,49.90
2022-12-03T00:40:14.877Z,50.00
2022-12-03T00:42:41.990Z,50.00
2022-12-03T00:45:09.268Z,49.80
2022-12-03T00:47:36.106Z,49.30
2022-12-03T00:50:03.349Z,49.50
2022-12-03T00:52:30.289Z,49.50
2022-12-03T00:54:57.115Z,49.40
2022-12-03T00:57:24.045Z,49.50
2022-12-03T00:59:50.927Z,49.20
2022-12-03T01:02:18.037Z,49.00
2022-12-03T01:04:47.165Z,48.60
2022-12-03T01:07:14.561Z,48.20
2022-12-03T01:09:41.550Z,48.00
2022-12-03T01:12:08.455Z,48.10
2022-12-03T01:14:35.457Z,48.70
2022-12-03T01:17:02.295Z,49.30
2022-12-03T01:19:29.554Z,49.90
2022-12-03T01:21:56.902Z,50.00
2022-12-03T01:24:23.822Z,49.10
2022-12-03T01:26:50.767Z,48.80
2022-12-03T01:29:17.847Z,50.60
2022-12-03T01:32:03.286Z,49.90
2022-12-03T01:34:30.199Z,50.30
2022-12-03T01:36:57.458Z,50.20
2022-12-03T01:39:24.712Z,49.80
2022-12-03T01:41:53.251Z,49.30
2022-12-03T01:44:26.286Z,49.50
2022-12-03T01:46:56.149Z,49.70
2022-12-03T01:49:27.362Z,49.80
2022-12-03T01:51:55.110Z,50.00
2022-12-03T01:54:27.230Z,50.50
2022-12-03T01:56:55.448Z,50.50
2022-12-03T01:59:27.956Z,49.90
2022-12-03T02:01:54.937Z,48.60
2022-12-03T02:04:23.649Z,48.70
2022-12-03T02:06:50.742Z,48.20
2022-12-03T02:09:17.666Z,49.30
2022-12-03T02:11:48.867Z,50.20
2022-12-03T02:14:21.929Z,50.70
2022-12-03T02:16:48.973Z,50.80
2022-12-03T02:19:26.787Z,50.50
2022-12-03T02:22:11.284Z,50.00
2022-12-03T02:25:07.452Z,49.70
2022-12-03T02:27:34.437Z,48.90
2022-12-03T02:30:01.405Z,48.60
2022-12-03T02:32:28.626Z,48.90
2022-12-03T02:34:55.925Z,48.90
2022-12-03T02:37:27.730Z,48.30
2022-12-03T02:39:58.508Z,47.70
2022-12-03T02:42:37.953Z,47.10
2022-12-03T02:45:07.876Z,47.40
2022-12-03T02:47:41.387Z,47.90
2022-12-03T02:50:09.835Z,48.10
2022-12-03T02:52:37.223Z,48.30
2022-12-03T02:55:06.851Z,48.30
2022-12-03T02:57:36.101Z,47.60
2022-12-03T03:00:04.137Z,47.50
2022-12-03T03:02:31.216Z,47.00
2022-12-03T03:04:58.587Z,46.20
2022-12-03T03:07:25.804Z,45.60
2022-12-03T03:09:52.808Z,46.70
2022-12-03T03:12:19.812Z,46.90
2022-12-03T03:14:46.837Z,47.00
2022-12-03T03:17:13.970Z,48.00
2022-12-03T03:19:41.071Z,47.00
2022-12-03T03:22:10.610Z,46.50
2022-12-03T03:24:38.017Z,45.70
2022-12-03T03:27:05.657Z,46.10
2022-12-03T03:29:33.801Z,46.80
2022-12-03T03:32:02.211Z,47.30
2022-12-03T03:34:32.531Z,47.10
2022-12-03T03:36:59.483Z,47.00
2022-12-03T03:39:26.492Z,46.40
2022-12-03T03:41:53.394Z,45.60
2022-12-03T03:44:20.345Z,45.90
2022-12-03T03:46:48.795Z,45.70
2022-12-03T03:49:16.378Z,45.50
2022-12-03T03:51:43.601Z,44.50
2022-12-03T03:54:10.636Z,43.90
2022-12-03T03:56:37.630Z,43.30
2022-12-03T03:59:04.797Z,43.80
2022-12-03T04:01:32.053Z,40.80
2022-12-03T04:03:59.737Z,40.90
2022-12-03T04:06:27.658Z,40.70
2022-12-03T04:08:54.853Z,40.70
2022-12-03T04:11:40.243Z,40.60
2022-12-03T04:14:07.174Z,40.70
2022-12-03T04:16:34.158Z,40.60
2022-12-03T04:19:01.092Z,40.70
2022-12-03T04:21:46.333Z,40.70
2022-12-03T04:24:13.427Z,40.60
2022-12-03T04:26:58.629Z,40.60
2022-12-03T04:29:25.623Z,39.80
2022-12-03T04:32:10.932Z,38.30
2022-12-03T04:34:56.520Z,38.60
2022-12-03T04:37:23.828Z,39.00
2022-12-03T04:39:50.952Z,40.60
2022-12-03T04:42:17.949Z,40.50
2022-12-03T04:44:44.883Z,40.40
2022-12-03T04:47:17.759Z,40.40
2022-12-03T04:49:47.047Z,40.30
2022-12-03T04:52:16.485Z,40.20
2022-12-03T04:54:43.561Z,40.30
2022-12-03T04:57:11.763Z,41.30
2022-12-03T04:59:39.214Z,43.00
2022-12-03T05:02:07.621Z,42.80
2022-12-03T05:04:34.630Z,41.60
2022-12-03T05:07:01.618Z,42.20
2022-12-03T05:09:28.701Z,43.10
2022-12-03T05:11:55.589Z,44.10
2022-12-03T05:14:22.568Z,44.10
2022-12-03T05:16:49.496Z,43.60
2022-12-03T05:19:16.650Z,42.00
2022-12-03T05:21:43.585Z,42.10
2022-12-03T05:24:10.458Z,42.10
2022-12-03T05:26:37.398Z,42.20
2022-12-03T05:29:04.393Z,42.80
2022-12-03T05:31:31.278Z,41.90
2022-12-03T05:33:58.401Z,41.50
2022-12-03T05:36:25.611Z,40.50
2022-12-03T05:38:52.787Z,40.40
2022-12-03T05:41:38.079Z,40.50
2022-12-03T05:44:05.068Z,40.40
2022-12-03T05:46:32.878Z,40.40
2022-12-03T05:48:59.962Z,40.40
2022-12-03T05:51:27.014Z,40.50
2022-12-03T05:53:53.885Z,40.40
2022-12-03T05:56:20.849Z,40.50
2022-12-03T05:58:47.850Z,40.50
2022-12-03T06:01:14.692Z,41.80
2022-12-03T06:03:41.686Z,40.50
2022-12-03T06:06:08.699Z,40.50
2022-12-03T06:08:35.596Z,40.60
2022-12-03T06:11:02.764Z,40.50
2022-12-03T06:13:29.834Z,40.60
2022-12-03T06:15:56.764Z,40.40
2022-12-03T06:18:23.690Z,40.50
2022-12-03T06:20:50.622Z,40.50
2022-12-03T06:23:17.562Z,40.60
2022-12-03T06:25:44.546Z,40.60
2022-12-03T06:28:11.450Z,40.60
2022-12-03T06:30:38.354Z,41.80
2022-12-03T06:33:05.346Z,40.50
2022-12-03T06:35:32.278Z,40.30
2022-12-03T06:37:59.279Z,39.40
2022-12-03T06:40:26.494Z,40.10
2022-12-03T06:42:53.619Z,40.20
2022-12-03T06:45:20.522Z,40.10
2022-12-03T06:47:47.577Z,41.20
2022-12-03T06:50:14.708Z,42.50
2022-12-03T06:52:41.726Z,42.20
2022-12-03T06:55:09.544Z,43.00
2022-12-03T06:57:36.499Z,42.50
2022-12-03T07:00:06.104Z,40.20
2022-12-03T07:02:33.052Z,40.20
2022-12-03T07:04:59.979Z,40.20
2022-12-03T07:07:27.196Z,40.20
2022-12-03T07:09:54.445Z,40.20
2022-12-03T07:12:21.304Z,40.30
2022-12-03T07:14:48.292Z,40.30
2022-12-03T07:17:15.426Z,40.30
2022-12-03T07:19:42.624Z,40.40
2022-12-03T07:22:09.528Z,40.40
2022-12-03T07:24:36.498Z,40.40
2022-12-03T07:27:03.552Z,40.30
2022-12-03T07:29:30.574Z,40.30
2022-12-03T07:31:57.456Z,39.40
2022-12-03T07:34:24.411Z,38.70
2022-12-03T07:36:51.240Z,38.40
2022-12-03T07:39:18.229Z,38.60
2022-12-03T07:41:45.268Z,39.10
2022-12-03T07:44:14.681Z,38.70
2022-12-03T07:46:42.683Z,39.50
2022-12-03T07:49:10.269Z,39.70
2022-12-03T07:51:37.337Z,38.60
2022-12-03T07:54:05.071Z,37.60
2022-12-03T07:56:32.990Z,40.00
2022-12-03T07:59:00.067Z,40.00
2022-12-03T08:01:27.546Z,40.20
2022-12-03T08:03:54.611Z,40.10
2022-12-03T08:06:21.540Z,40.20
2022-12-03T08:08:48.457Z,40.20
2022-12-03T08:11:15.644Z,40.20
2022-12-03T08:13:43.018Z,40.20
2022-12-03T08:16:16.945Z,40.20
2022-12-03T08:18:44.764Z,40.20
2022-12-03T08:21:18.066Z,40.10
2022-12-03T08:23:45.552Z,41.20
2022-12-03T08:26:25.257Z,42.00
2022-12-03T08:28:53.251Z,42.00
2022-12-03T08:31:32.236Z,42.40
2022-12-03T08:34:19.217Z,43.50
2022-12-03T08:36:47.998Z,44.00
2022-12-03T08:39:33.721Z,43.90
2022-12-03T08:42:34.428Z,43.70
2022-12-03T08:45:32.697Z,45.20
2022-12-03T08:48:22.467Z,46.00
2022-12-03T08:50:49.925Z,45.80
2022-12-03T08:53:36.908Z,45.40
2022-12-03T08:56:23.617Z,46.00
2022-12-03T08:59:18.976Z,45.20
2022-12-03T09:01:47.662Z,45.10
2022-12-03T09:04:45.117Z,44.40
2022-12-03T09:07:12.053Z,44.00
2022-12-03T09:09:39.384Z,46.30
2022-12-03T09:12:06.603Z,45.70
2022-12-03T09:14:33.511Z,46.00
2022-12-03T09:17:00.714Z,46.20
2022-12-03T09:19:31.154Z,46.80
2022-12-03T09:21:58.611Z,47.10
2022-12-03T09:24:25.745Z,46.40
2022-12-03T09:26:52.770Z,46.30
2022-12-03T09:29:19.963Z,44.10
2022-12-03T09:31:47.135Z,43.70
2022-12-03T09:34:14.283Z,44.80
2022-12-03T09:36:41.281Z,44.30
2022-12-03T09:39:08.247Z,44.30
2022-12-03T09:41:35.616Z,43.80
2022-12-03T09:44:04.352Z,43.40
2022-12-03T09:46:32.653Z,40.50
2022-12-03T09:49:01.140Z,40.50
2022-12-03T09:51:32.857Z,41.00
2022-12-03T09:54:01.478Z,40.60
2022-12-03T09:56:28.833Z,39.10
2022-12-03T09:58:56.081Z,38.70
2022-12-03T10:01:26.789Z,40.40
2022-12-03T10:03:56.278Z,40.40
2022-12-03T10:06:24.169Z,40.40
2022-12-03T10:08:54.561Z,40.40
2022-12-03T10:11:24.815Z,40.40
2022-12-03T10:13:53.278Z,40.40
2022-12-03T10:16:21.174Z,40.30
2022-12-03T10:18:54.505Z,40.20
2022-12-03T10:21:34.564Z,42.60
2022-12-03T10:24:21.717Z,43.30
2022-12-03T10:26:51.082Z,43.90
2022-12-03T10:29:21.206Z,44.80
2022-12-03T10:31:59.628Z,45.20
2022-12-03T10:34:33.241Z,45.20
2022-12-03T10:37:19.859Z,46.00
2022-12-03T10:40:09.400Z,45.30
2022-12-03T10:42:41.025Z,46.00
2022-12-03T10:45:15.959Z,47.10
2022-12-03T10:47:44.065Z,47.10
2022-12-03T10:50:19.570Z,46.80
2022-12-03T10:52:47.269Z,43.80
2022-12-03T10:55:16.023Z,44.10
2022-12-03T10:57:45.865Z,43.60
2022-12-03T11:00:18.827Z,44.50
2022-12-03T11:02:53.351Z,45.00
2022-12-03T11:05:27.421Z,45.50
2022-12-03T11:07:55.288Z,46.50
2022-12-03T11:10:22.424Z,46.00
2022-12-03T11:13:29.277Z,43.90
2022-12-03T11:15:56.930Z,42.50
2022-12-03T11:18:39.134Z,45.40
2022-12-03T11:21:07.446Z,45.20
2022-12-03T11:23:46.641Z,46.50
2022-12-03T11:26:19.455Z,46.50
2022-12-03T11:28:46.980Z,47.10
2022-12-03T11:31:41.993Z,47.30
2022-12-03T11:34:21.197Z,45.70
2022-12-03T11:37:12.883Z,46.60
2022-12-03T11:39:52.112Z,45.20
2022-12-03T11:42:28.444Z,46.00
2022-12-03T11:45:28.082Z,45.50
2022-12-03T11:48:16.516Z,46.80
2022-12-03T11:50:53.807Z,47.50
2022-12-03T11:53:31.504Z,47.70
2022-12-03T11:56:08.977Z,46.40
2022-12-03T11:58:38.760Z,46.40
2022-12-03T12:01:07.582Z,47.10
2022-12-03T12:03:36.403Z,47.80
2022-12-03T12:06:15.708Z,47.10
2022-12-03T12:08:56.944Z,47.10
2022-12-03T12:11:30.972Z,47.50
2022-12-03T12:14:00.075Z,49.40
2022-12-03T12:16:42.326Z,49.90
2022-12-03T12:19:43.024Z,49.40
2022-12-03T12:22:25.133Z,48.20
2022-12-03T12:24:53.817Z,48.40
2022-12-03T12:27:45.271Z,47.00
2022-12-03T12:30:18.521Z,46.70
2022-12-03T12:33:16.160Z,45.70
2022-12-03T12:35:43.286Z,44.50
2022-12-03T12:38:13.039Z,45.80
2022-12-03T12:40:41.979Z,44.80
2022-12-03T12:43:26.798Z,43.80
2022-12-03T12:45:56.321Z,42.40
2022-12-03T12:48:23.614Z,40.80
2022-12-03T12:51:11.534Z,38.20
2022-12-03T12:53:40.372Z,35.90
2022-12-03T12:56:32.685Z,40.90
2022-12-03T12:59:12.932Z,41.00
2022-12-03T13:01:41.392Z,40.90
2022-12-03T13:04:17.636Z,40.90
2022-12-03T13:06:46.312Z,40.80
2022-12-03T13:09:25.285Z,40.70
2022-12-03T13:12:00.549Z,40.80
2022-12-03T13:14:36.873Z,41.10
2022-12-03T13:17:24.635Z,40.70
2022-12-03T13:20:00.425Z,42.50
2022-12-03T13:22:32.192Z,43.80
2022-12-03T13:25:58.247Z,41.60
2022-12-03T13:28:20.517Z,40.70
2022-12-03T13:30:47.525Z,40.60
2022-12-03T13:33:26.593Z,40.70
2022-12-03T13:35:55.740Z,42.90
2022-12-03T13:38:26.300Z,43.60
2022-12-03T13:41:01.551Z,42.00
2022-12-03T13:43:31.909Z,41.50
2022-12-03T13:46:00.255Z,42.90
2022-12-03T13:48:35.152Z,42.60
2022-12-03T13:51:16.314Z,44.40
2022-12-03T13:53:43.344Z,45.50
2022-12-03T13:56:30.684Z,46.00
2022-12-03T13:59:00.223Z,45.60
2022-12-03T14:01:28.268Z,44.80
2022-12-03T14:03:55.589Z,45.00
2022-12-03T14:06:22.618Z,45.80
2022-12-03T14:08:49.514Z,46.20
2022-12-03T14:11:34.857Z,46.10
2022-12-03T14:14:01.748Z,46.00
2022-12-03T14:16:28.642Z,45.90
2022-12-03T14:18:55.766Z,46.60
2022-12-03T14:21:22.664Z,46.30
2022-12-03T14:23:49.677Z,45.70
2022-12-03T14:26:16.624Z,46.00
2022-12-03T14:28:43.588Z,46.60
2022-12-03T14:31:10.468Z,47.50
2022-12-03T14:33:37.353Z,47.20
2022-12-03T14:36:04.795Z,47.60
2022-12-03T14:38:31.779Z,48.00
2022-12-03T14:40:58.634Z,47.50
2022-12-03T14:43:25.485Z,47.70
2022-12-03T14:45:52.511Z,48.40
2022-12-03T14:48:19.455Z,49.30
2022-12-03T14:50:46.420Z,48.20
2022-12-03T14:53:13.285Z,47.70
2022-12-03T14:55:40.291Z,48.40
2022-12-03T14:58:07.228Z,48.40
2022-12-03T15:00:34.239Z,48.80
2022-12-03T15:03:01.242Z,48.90
2022-12-03T15:05:29.134Z,48.10
2022-12-03T15:07:56.507Z,48.50
2022-12-03T15:10:23.553Z,47.80
2022-12-03T15:12:50.631Z,47.60
2022-12-03T15:15:17.772Z,48.10
2022-12-03T15:17:45.759Z,48.00
2022-12-03T15:20:13.248Z,48.70
2022-12-03T15:22:40.106Z,48.20
2022-12-03T15:25:07.827Z,48.90
2022-12-03T15:27:34.911Z,48.00
2022-12-03T15:30:01.955Z,48.00
2022-12-03T15:32:28.862Z,47.80
2022-12-03T15:34:55.739Z,48.20
2022-12-03T15:37:27.504Z,47.80
2022-12-03T15:39:55.074Z,48.00
2022-12-03T15:42:22.244Z,47.90
2022-12-03T15:44:49.190Z,47.30
2022-12-03T15:47:16.154Z,48.00
2022-12-03T15:49:42.994Z,48.60
2022-12-03T15:52:09.858Z,48.70
2022-12-03T15:54:37.134Z,48.50
2022-12-03T15:57:04.063Z,48.10
2022-12-03T15:59:31.010Z,47.10
2022-12-03T16:01:58.015Z,46.70
2022-12-03T16:04:25.027Z,47.10
2022-12-03T16:06:51.930Z,47.40
2022-12-03T16:09:23.728Z,48.30
2022-12-03T16:11:53.827Z,48.30
2022-12-03T16:14:20.734Z,48.60
2022-12-03T16:16:47.783Z,49.00
2022-12-03T16:19:14.892Z,49.40
2022-12-03T16:21:41.893Z,49.30
2022-12-03T16:24:08.925Z,50.00
2022-12-03T16:26:35.891Z,49.10
2022-12-03T16:29:02.916Z,48.90
2022-12-03T16:31:30.110Z,47.90
2022-12-03T16:33:57.193Z,47.70
2022-12-03T16:36:24.190Z,47.90
2022-12-03T16:38:51.135Z,46.60
2022-12-03T16:41:18.634Z,46.90
2022-12-03T16:43:48.401Z,46.80
2022-12-03T16:46:15.453Z,46.40
2022-12-03T16:48:43.305Z,45.90
2022-12-03T16:51:10.766Z,46.90
2022-12-03T16:53:37.683Z,47.60
2022-12-03T16:56:04.785Z,47.80
2022-12-03T16:58:31.740Z,47.80
2022-12-03T17:00:58.708Z,48.50
2022-12-03T17:03:30.343Z,49.60
2022-12-03T17:06:00.939Z,49.80
2022-12-03T17:08:28.180Z,49.90
2022-12-03T17:10:55.141Z,49.10
2022-12-03T17:13:23.205Z,49.50
2022-12-03T17:15:51.099Z,49.50
2022-12-03T17:18:18.071Z,50.20
2022-12-03T17:20:44.962Z,50.60
2022-12-03T17:23:12.262Z,50.10
2022-12-03T17:25:39.218Z,50.70
2022-12-03T17:28:06.209Z,50.30
2022-12-03T17:30:33.269Z,50.60
2022-12-03T17:33:00.314Z,51.30
2022-12-03T17:35:28.588Z,52.60
2022-12-03T17:37:55.712Z,51.60
2022-12-03T17:40:23.166Z,51.90
2022-12-03T17:42:50.130Z,52.50
2022-12-03T17:45:17.166Z,51.90
2022-12-03T17:47:44.214Z,50.70
2022-12-03T17:50:11.672Z,50.60
2022-12-03T17:52:38.568Z,50.10
2022-12-03T17:55:15.984Z,49.60
2022-12-03T17:57:48.436Z,48.80
2022-12-03T18:00:15.813Z,48.30
2022-12-03T18:02:42.856Z,49.20
2022-12-03T18:05:10.035Z,47.70
2022-12-03T18:07:37.086Z,47.60
2022-12-03T18:10:04.466Z,48.00
2022-12-03T18:12:31.503Z,47.60
2022-12-03T18:14:58.500Z,47.10
2022-12-03T18:17:25.435Z,46.20
2022-12-03T18:19:52.839Z,46.30
2022-12-03T18:22:20.079Z,45.90
2022-12-03T18:24:51.573Z,46.10
2022-12-03T18:27:21.067Z,46.30
2022-12-03T18:29:48.497Z,47.80
2022-12-03T18:32:28.358Z,47.40
2022-12-03T18:34:56.773Z,46.10
2022-12-03T18:37:27.242Z,47.30
2022-12-03T18:39:55.348Z,48.40
2022-12-03T18:42:23.571Z,49.10
2022-12-03T18:44:52.920Z,49.10
2022-12-03T18:47:27.207Z,48.30
2022-12-03T18:49:54.962Z,47.90
2022-12-03T18:52:24.893Z,47.00
2022-12-03T18:54:52.479Z,47.10
2022-12-03T18:57:19.439Z,46.90
2022-12-03T18:59:46.542Z,47.50
2022-12-03T19:02:38.650Z,47.30
2022-12-03T19:05:04.336Z,47.30
2022-12-03T19:07:31.231Z,45.90
2022-12-03T19:09:58.214Z,46.60
2022-12-03T19:12:25.196Z,47.90
2022-12-03T19:14:52.246Z,48.00
2022-12-03T19:17:19.251Z,48.20
2022-12-03T19:19:46.535Z,47.10
2022-12-03T19:22:13.606Z,46.70
2022-12-03T19:24:40.633Z,46.10
2022-12-03T19:27:07.587Z,46.70
2022-12-03T19:29:34.637Z,46.90
2022-12-03T19:32:01.797Z,47.30
2022-12-03T19:34:29.987Z,46.90
2022-12-03T19:36:56.906Z,46.10
2022-12-03T19:39:24.169Z,46.40
2022-12-03T19:41:51.378Z,46.00
2022-12-03T19:44:19.224Z,46.00
2022-12-03T19:46:46.164Z,46.10
2022-12-03T19:49:13.152Z,47.40
2022-12-03T19:51:40.164Z,47.40
2022-12-03T19:54:10.193Z,47.60
2022-12-03T19:56:37.286Z,47.60
2022-12-03T19:59:05.240Z,47.80
2022-12-03T20:01:34.467Z,48.30
2022-12-03T20:04:03.906Z,48.00
2022-12-03T20:06:33.680Z,47.40
2022-12-03T20:09:04.810Z,47.30
2022-12-03T20:11:33.563Z,47.50
2022-12-03T20:14:06.874Z,47.40
2022-12-03T20:16:34.717Z,47.80
2022-12-03T20:19:05.169Z,48.40
2022-12-03T20:21:33.611Z,48.30
2022-12-03T20:24:00.951Z,48.30
2022-12-03T20:26:28.557Z,47.70
2022-12-03T20:28:56.372Z,48.10
2022-12-03T20:31:28.023Z,48.20
2022-12-03T20:33:58.619Z,48.00
2022-12-03T20:36:27.049Z,47.10
2022-12-03T20:39:00.015Z,46.30
2022-12-03T20:41:27.287Z,45.90
2022-12-03T20:43:55.016Z,45.60
2022-12-03T20:46:29.303Z,45.90
2022-12-03T20:48:57.067Z,46.00
2022-12-03T20:51:26.407Z,45.10
2022-12-03T20:53:54.014Z,44.50
2022-12-03T20:56:33.070Z,43.90
2022-12-03T20:59:05.467Z,42.80
2022-12-03T21:01:32.634Z,43.20
2022-12-03T21:03:59.637Z,43.80
2022-12-03T21:06:28.046Z,43.80
2022-12-03T21:08:56.131Z,43.20
2022-12-03T21:11:26.093Z,43.80
2022-12-03T21:13:54.117Z,44.10
2022-12-03T21:16:45.533Z,45.10
2022-12-03T21:19:11.598Z,45.50
2022-12-03T21:21:38.499Z,46.30
2022-12-03T21:24:05.667Z,46.90
2022-12-03T21:26:32.677Z,46.60
2022-12-03T21:28:59.773Z,46.70
2022-12-03T21:31:27.026Z,46.70
2022-12-03T21:33:56.324Z,46.80
2022-12-03T21:36:24.734Z,47.10
2022-12-03T21:38:52.464Z,47.10
2022-12-03T21:41:19.511Z,47.10
2022-12-03T21:43:46.581Z,47.10
2022-12-03T21:47:12.689Z,46.80
2022-12-03T21:49:04.121Z,47.00
2022-12-03T21:51:30.958Z,47.40
2022-12-03T21:53:57.917Z,47.80
2022-12-03T21:56:25.002Z,47.90
2022-12-03T21:58:51.959Z,48.70
2022-12-03T22:01:23.688Z,49.20
2022-12-03T22:03:51.401Z,49.40
2022-12-03T22:06:18.815Z,49.80
2022-12-03T22:08:46.252Z,50.50
2022-12-03T22:11:16.518Z,51.40
2022-12-03T22:13:43.584Z,52.80
2022-12-03T22:16:14.234Z,52.70
2022-12-03T22:18:41.788Z,53.00
2022-12-03T22:21:15.636Z,52.90
2022-12-03T22:23:42.657Z,52.80
2022-12-03T22:26:13.130Z,53.10
2022-12-03T22:28:44.343Z,52.30
2022-12-03T22:31:11.795Z,51.90
2022-12-03T22:33:39.495Z,51.70
2022-12-03T22:36:17.951Z,51.70
2022-12-03T22:38:47.539Z,51.80
2022-12-03T22:41:15.797Z,52.20
2022-12-03T22:43:43.043Z,52.80
2022-12-03T22:46:12.521Z,52.20
2022-12-03T22:48:41.786Z,51.90
2022-12-03T22:51:18.214Z,51.90
2022-12-03T22:53:45.326Z,51.90
2022-12-03T22:56:13.023Z,51.70
2022-12-03T22:58:41.131Z,51.90
2022-12-03T23:01:08.376Z,52.20
2022-12-03T23:03:36.240Z,52.00
2022-12-03T23:06:10.347Z,51.90
2022-12-03T23:08:37.660Z,52.10
2022-12-03T23:11:04.939Z,52.00
2022-12-03T23:13:32.081Z,51.70
2022-12-03T23:15:59.080Z,51.50
2022-12-03T23:18:26.038Z,51.20
2022-12-03T23:20:55.034Z,51.10
2022-12-03T23:23:24.157Z,51.00
2022-12-03T23:26:02.477Z,50.40
2022-12-03T23:28:31.046Z,50.50
2022-12-03T23:30:58.389Z,50.50
2022-12-03T23:33:27.788Z,50.40
2022-12-03T23:35:54.874Z,50.50
2022-12-03T23:38:21.941Z,50.40
2022-12-03T23:40:49.095Z,50.00
2022-12-03T23:43:20.037Z,50.00
2022-12-03T23:45:47.050Z,50.30
2022-12-03T23:48:14.009Z,50.20
2022-12-03T23:50:41.385Z,50.60
2022-12-03T23:53:08.958Z,50.30
2022-12-03T23:55:40.440Z,50.20
2022-12-03T23:58:07.775Z,50.60
